Welcome!

Visit our other weather sites:

Template documentation
and downloads

And another site



There are no active watches, warnings or advisories

Nearby METAR Reports

   
KAVP - Albrightsville, PA
Updated: Apr 14 2021 7:54 pm
Clear  
Clear  
   Wind: varies 4.6 mph
Wind: varies 4.6 mph
Temperature: 57.2°F
Dew Point: 46.4°F
Humidity: 67%
Barometer: 29.87 inHg
Clouds: Clear
Visibility: 10 mi
Cloud details: Clear
KAVP 150054Z VRB04KT 10SM CLR 14/08 A2987 RMK AO2 SLP113 T01440083
KIWA - Apache Junction, AZ
Updated: Apr 14 2021 7:50 pm
Overcast  
Overcast  
   Wind: West 17.3 mph
Wind: West 17.3 mph
Temperature: 82.4°F
Dew Point: 23°F
Humidity: 11%
Barometer: 29.77 inHg
Clouds: Overcast
Visibility: 10 mi
Cloud details: Overcast 6096 m
KIWA 150050Z 27015KT 10SM OVC200 28/M05 A2977
KPKB - Blue Rock, OH
Updated: Apr 14 2021 7:53 pm
Clear  
Clear  
   Wind: SSW 5.8 mph
Wind: SSW 5.8 mph
Temperature: 48.2°F
Wind Chill: 46.4°F
Dew Point: 44.6°F
Humidity: 87%
Barometer: 29.96 inHg
Clouds: Clear
Visibility: 10 mi
Cloud details: Clear
KPKB 150053Z 21005KT 10SM CLR 09/07 A2996 RMK AO2 SLP145 T00940067
KHVN - Branford, CT
Updated: Apr 14 2021 7:53 pm
Overcast  
Overcast  
   Wind: East 10.4 mph
Wind: East 10.4 mph
Temperature: 51.8°F
Dew Point: 46.4°F
Humidity: 82%
Barometer: 29.92 inHg
Clouds: Overcast
Visibility: 10 mi
Cloud details: Overcast 3658 m
KHVN 150053Z 10009KT 10SM OVC120 11/08 A2992 RMK AO2 SLP131 T01060083
KPHX - Carefree, AZ
Updated: Apr 14 2021 7:51 pm
Overcast  
Overcast  
   Wind: West 15 mph
Wind: West 15 mph
Temperature: 82.4°F
Dew Point: 24.8°F
Humidity: 12%
Barometer: 29.74 inHg
Clouds: Overcast
Visibility: 10 mi
Cloud details: Mostly Cloudy 7620 m,
Overcast 8839 m
KPHX 150051Z 26013KT 10SM BKN250 OVC290 28/M04 A2974 RMK AO2 SLP057 T02831044
 

Script developed by  Saratoga-weather.org Adapted for the template by  Weerstation Leuven